sensor_id;sensor_type;location;lat;lon;timestamp;pressure;altitude;pressure_sealevel;temperature
15607;BMP180;7865;50.918;4.510;2023-03-14T00:01:32;98572.00;;;10.70
15607;BMP180;7865;50.918;4.510;2023-03-14T00:06:34;98567.00;;;10.60
15607;BMP180;7865;50.918;4.510;2023-03-14T00:11:36;98581.00;;;10.50
15607;BMP180;7865;50.918;4.510;2023-03-14T00:16:39;98582.00;;;10.50
15607;BMP180;7865;50.918;4.510;2023-03-14T00:21:41;98594.00;;;10.40
15607;BMP180;7865;50.918;4.510;2023-03-14T00:26:43;98582.00;;;10.40
15607;BMP180;7865;50.918;4.510;2023-03-14T00:31:45;98585.00;;;10.40
15607;BMP180;7865;50.918;4.510;2023-03-14T00:36:47;98583.00;;;10.40
15607;BMP180;7865;50.918;4.510;2023-03-14T00:41:49;98588.00;;;10.40
15607;BMP180;7865;50.918;4.510;2023-03-14T00:46:51;98574.00;;;10.40
15607;BMP180;7865;50.918;4.510;2023-03-14T00:51:53;98576.00;;;10.30
15607;BMP180;7865;50.918;4.510;2023-03-14T00:56:55;98577.00;;;10.30
15607;BMP180;7865;50.918;4.510;2023-03-14T01:01:57;98568.00;;;10.30
15607;BMP180;7865;50.918;4.510;2023-03-14T01:06:59;98562.00;;;10.40
15607;BMP180;7865;50.918;4.510;2023-03-14T01:12:01;98564.00;;;10.30
15607;BMP180;7865;50.918;4.510;2023-03-14T01:17:03;98546.00;;;10.30
15607;BMP180;7865;50.918;4.510;2023-03-14T01:22:05;98526.00;;;10.30
15607;BMP180;7865;50.918;4.510;2023-03-14T01:27:07;98535.00;;;10.30
15607;BMP180;7865;50.918;4.510;2023-03-14T01:32:10;98519.00;;;10.30
15607;BMP180;7865;50.918;4.510;2023-03-14T01:37:11;98510.00;;;10.20
15607;BMP180;7865;50.918;4.510;2023-03-14T01:42:15;98521.00;;;10.20
15607;BMP180;7865;50.918;4.510;2023-03-14T01:47:18;98501.00;;;10.10
15607;BMP180;7865;50.918;4.510;2023-03-14T01:52:42;98502.00;;;10.00
15607;BMP180;7865;50.918;4.510;2023-03-14T01:57:49;98511.00;;;10.00
15607;BMP180;7865;50.918;4.510;2023-03-14T02:03:01;98508.00;;;10.00
15607;BMP180;7865;50.918;4.510;2023-03-14T02:08:07;98503.00;;;10.00
15607;BMP180;7865;50.918;4.510;2023-03-14T02:13:18;98484.00;;;10.00
15607;BMP180;7865;50.918;4.510;2023-03-14T02:18:30;98480.00;;;10.10
15607;BMP180;7865;50.918;4.510;2023-03-14T02:24:11;98487.00;;;9.90
15607;BMP180;7865;50.918;4.510;2023-03-14T02:29:20;98489.00;;;9.60
15607;BMP180;7865;50.918;4.510;2023-03-14T02:34:24;98501.00;;;9.40
15607;BMP180;7865;50.918;4.510;2023-03-14T02:39:39;98499.00;;;9.20
15607;BMP180;7865;50.918;4.510;2023-03-14T02:44:50;98506.00;;;9.00
15607;BMP180;7865;50.918;4.510;2023-03-14T02:49:59;98509.00;;;9.00
15607;BMP180;7865;50.918;4.510;2023-03-14T02:55:03;98507.00;;;9.10
15607;BMP180;7865;50.918;4.510;2023-03-14T03:00:07;98499.00;;;9.10
15607;BMP180;7865;50.918;4.510;2023-03-14T03:05:12;98490.00;;;9.00
15607;BMP180;7865;50.918;4.510;2023-03-14T03:10:14;98471.00;;;8.90
15607;BMP180;7865;50.918;4.510;2023-03-14T03:15:16;98479.00;;;9.00
15607;BMP180;7865;50.918;4.510;2023-03-14T03:20:18;98469.00;;;9.00
15607;BMP180;7865;50.918;4.510;2023-03-14T03:25:20;98472.00;;;9.10
15607;BMP180;7865;50.918;4.510;2023-03-14T03:30:25;98462.00;;;9.10
15607;BMP180;7865;50.918;4.510;2023-03-14T03:35:27;98455.00;;;9.20
15607;BMP180;7865;50.918;4.510;2023-03-14T03:40:30;98462.00;;;9.20
15607;BMP180;7865;50.918;4.510;2023-03-14T03:45:33;98456.00;;;9.30
15607;BMP180;7865;50.918;4.510;2023-03-14T03:50:35;98454.00;;;9.30
15607;BMP180;7865;50.918;4.510;2023-03-14T03:55:40;98439.00;;;9.30
15607;BMP180;7865;50.918;4.510;2023-03-14T04:00:44;98430.00;;;9.30
15607;BMP180;7865;50.918;4.510;2023-03-14T04:05:57;98430.00;;;9.30
15607;BMP180;7865;50.918;4.510;2023-03-14T04:11:01;98439.00;;;9.30
15607;BMP180;7865;50.918;4.510;2023-03-14T04:16:24;98445.00;;;9.30
15607;BMP180;7865;50.918;4.510;2023-03-14T04:21:32;98438.00;;;9.40
15607;BMP180;7865;50.918;4.510;2023-03-14T04:26:34;98435.00;;;9.50
15607;BMP180;7865;50.918;4.510;2023-03-14T04:31:36;98438.00;;;9.60
15607;BMP180;7865;50.918;4.510;2023-03-14T04:36:38;98429.00;;;9.60
15607;BMP180;7865;50.918;4.510;2023-03-14T04:41:46;98433.00;;;9.70
15607;BMP180;7865;50.918;4.510;2023-03-14T04:46:48;98431.00;;;9.70
15607;BMP180;7865;50.918;4.510;2023-03-14T04:51:51;98442.00;;;9.80
15607;BMP180;7865;50.918;4.510;2023-03-14T04:56:55;98435.00;;;9.70
15607;BMP180;7865;50.918;4.510;2023-03-14T05:01:57;98420.00;;;9.70
15607;BMP180;7865;50.918;4.510;2023-03-14T05:07:16;98421.00;;;9.60
15607;BMP180;7865;50.918;4.510;2023-03-14T05:12:51;98413.00;;;9.50
15607;BMP180;7865;50.918;4.510;2023-03-14T05:18:17;98403.00;;;9.50
15607;BMP180;7865;50.918;4.510;2023-03-14T05:23:37;98404.00;;;9.50
15607;BMP180;7865;50.918;4.510;2023-03-14T05:28:48;98407.00;;;9.50
15607;BMP180;7865;50.918;4.510;2023-03-14T05:34:08;98403.00;;;9.50
15607;BMP180;7865;50.918;4.510;2023-03-14T05:39:30;98408.00;;;9.60
15607;BMP180;7865;50.918;4.510;2023-03-14T05:44:55;98401.00;;;9.60
15607;BMP180;7865;50.918;4.510;2023-03-14T05:50:18;98402.00;;;9.60
15607;BMP180;7865;50.918;4.510;2023-03-14T05:55:30;98409.00;;;9.60
15607;BMP180;7865;50.918;4.510;2023-03-14T06:00:51;98417.00;;;9.70
15607;BMP180;7865;50.918;4.510;2023-03-14T06:06:07;98418.00;;;9.70
15607;BMP180;7865;50.918;4.510;2023-03-14T06:11:09;98414.00;;;9.70
15607;BMP180;7865;50.918;4.510;2023-03-14T06:16:12;98425.00;;;9.70
15607;BMP180;7865;50.918;4.510;2023-03-14T06:21:15;98430.00;;;9.70
15607;BMP180;7865;50.918;4.510;2023-03-14T06:26:20;98427.00;;;9.90
15607;BMP180;7865;50.918;4.510;2023-03-14T06:31:23;98421.00;;;9.80
15607;BMP180;7865;50.918;4.510;2023-03-14T06:36:30;98442.00;;;9.60
15607;BMP180;7865;50.918;4.510;2023-03-14T06:41:33;98452.00;;;9.60
15607;BMP180;7865;50.918;4.510;2023-03-14T06:46:36;98460.00;;;9.60
15607;BMP180;7865;50.918;4.510;2023-03-14T06:51:38;98523.00;;;9.60
15607;BMP180;7865;50.918;4.510;2023-03-14T06:56:42;98566.00;;;9.10
15607;BMP180;7865;50.918;4.510;2023-03-14T07:01:45;98611.00;;;8.30
15607;BMP180;7865;50.918;4.510;2023-03-14T07:06:47;98635.00;;;7.80
15607;BMP180;7865;50.918;4.510;2023-03-14T07:11:49;98637.00;;;7.50
15607;BMP180;7865;50.918;4.510;2023-03-14T07:16:52;98656.00;;;7.20
15607;BMP180;7865;50.918;4.510;2023-03-14T07:21:54;98687.00;;;6.90
15607;BMP180;7865;50.918;4.510;2023-03-14T07:27:00;98719.00;;;6.70
15607;BMP180;7865;50.918;4.510;2023-03-14T07:32:03;98757.00;;;6.80
15607;BMP180;7865;50.918;4.510;2023-03-14T07:37:05;98767.00;;;6.80
15607;BMP180;7865;50.918;4.510;2023-03-14T07:42:07;98778.00;;;6.90
15607;BMP180;7865;50.918;4.510;2023-03-14T07:47:33;98804.00;;;6.80
15607;BMP180;7865;50.918;4.510;2023-03-14T07:52:35;98814.00;;;7.00
15607;BMP180;7865;50.918;4.510;2023-03-14T07:57:37;98828.00;;;7.40
15607;BMP180;7865;50.918;4.510;2023-03-14T08:02:38;98824.00;;;7.40
15607;BMP180;7865;50.918;4.510;2023-03-14T08:07:40;98851.00;;;7.50
15607;BMP180;7865;50.918;4.510;2023-03-14T08:12:42;98863.00;;;7.70
15607;BMP180;7865;50.918;4.510;2023-03-14T08:17:44;98887.00;;;7.80
15607;BMP180;7865;50.918;4.510;2023-03-14T08:22:47;98900.00;;;7.70
15607;BMP180;7865;50.918;4.510;2023-03-14T08:27:49;98928.00;;;7.40
15607;BMP180;7865;50.918;4.510;2023-03-14T08:32:51;98928.00;;;7.50
15607;BMP180;7865;50.918;4.510;2023-03-14T08:37:53;98966.00;;;7.40
15607;BMP180;7865;50.918;4.510;2023-03-14T08:42:55;98986.00;;;7.60
15607;BMP180;7865;50.918;4.510;2023-03-14T08:47:57;99002.00;;;7.40
15607;BMP180;7865;50.918;4.510;2023-03-14T08:52:59;99008.00;;;7.30
15607;BMP180;7865;50.918;4.510;2023-03-14T08:58:02;99028.00;;;7.80
15607;BMP180;7865;50.918;4.510;2023-03-14T09:03:04;99041.00;;;8.10
15607;BMP180;7865;50.918;4.510;2023-03-14T09:08:06;99053.00;;;8.30
15607;BMP180;7865;50.918;4.510;2023-03-14T09:13:08;99082.00;;;8.10
15607;BMP180;7865;50.918;4.510;2023-03-14T09:18:10;99083.00;;;8.10
15607;BMP180;7865;50.918;4.510;2023-03-14T09:23:12;99120.00;;;7.70
15607;BMP180;7865;50.918;4.510;2023-03-14T09:28:14;99141.00;;;7.40
15607;BMP180;7865;50.918;4.510;2023-03-14T09:33:17;99159.00;;;7.70
15607;BMP180;7865;50.918;4.510;2023-03-14T09:38:19;99170.00;;;7.90
15607;BMP180;7865;50.918;4.510;2023-03-14T09:43:24;99189.00;;;7.10
15607;BMP180;7865;50.918;4.510;2023-03-14T09:48:29;99212.00;;;6.90
15607;BMP180;7865;50.918;4.510;2023-03-14T09:53:44;99228.00;;;7.20
15607;BMP180;7865;50.918;4.510;2023-03-14T09:58:53;99248.00;;;8.10
15607;BMP180;7865;50.918;4.510;2023-03-14T10:04:00;99248.00;;;9.00
15607;BMP180;7865;50.918;4.510;2023-03-14T10:09:03;99263.00;;;8.30
15607;BMP180;7865;50.918;4.510;2023-03-14T10:14:11;99282.00;;;7.80
15607;BMP180;7865;50.918;4.510;2023-03-14T10:19:18;99305.00;;;7.30
15607;BMP180;7865;50.918;4.510;2023-03-14T10:24:31;99341.00;;;6.90
15607;BMP180;7865;50.918;4.510;2023-03-14T10:29:34;99367.00;;;6.60
15607;BMP180;7865;50.918;4.510;2023-03-14T10:34:38;99392.00;;;6.30
15607;BMP180;7865;50.918;4.510;2023-03-14T10:39:47;99414.00;;;6.00
15607;BMP180;7865;50.918;4.510;2023-03-14T10:44:56;99442.00;;;6.30
15607;BMP180;7865;50.918;4.510;2023-03-14T10:50:22;99441.00;;;6.50
15607;BMP180;7865;50.918;4.510;2023-03-14T10:55:25;99442.00;;;6.20
15607;BMP180;7865;50.918;4.510;2023-03-14T11:00:30;99478.00;;;5.90
15607;BMP180;7865;50.918;4.510;2023-03-14T11:05:42;99500.00;;;6.00
15607;BMP180;7865;50.918;4.510;2023-03-14T11:10:51;99508.00;;;5.90
15607;BMP180;7865;50.918;4.510;2023-03-14T11:16:06;99527.00;;;6.00
15607;BMP180;7865;50.918;4.510;2023-03-14T11:26:49;99552.00;;;6.20
15607;BMP180;7865;50.918;4.510;2023-03-14T11:31:57;99572.00;;;6.50
15607;BMP180;7865;50.918;4.510;2023-03-14T11:37:06;99570.00;;;6.50
15607;BMP180;7865;50.918;4.510;2023-03-14T11:42:16;99591.00;;;6.50
15607;BMP180;7865;50.918;4.510;2023-03-14T11:47:32;99592.00;;;6.90
15607;BMP180;7865;50.918;4.510;2023-03-14T11:52:41;99598.00;;;7.50
15607;BMP180;7865;50.918;4.510;2023-03-14T11:57:47;99600.00;;;8.10
15607;BMP180;7865;50.918;4.510;2023-03-14T12:08:46;99616.00;;;8.70
15607;BMP180;7865;50.918;4.510;2023-03-14T12:13:51;99636.00;;;8.50
15607;BMP180;7865;50.918;4.510;2023-03-14T12:18:54;99657.00;;;7.40
15607;BMP180;7865;50.918;4.510;2023-03-14T12:23:57;99680.00;;;7.00
15607;BMP180;7865;50.918;4.510;2023-03-14T12:34:03;99719.00;;;6.10
15607;BMP180;7865;50.918;4.510;2023-03-14T12:39:35;99724.00;;;5.90
15607;BMP180;7865;50.918;4.510;2023-03-14T12:44:50;99724.00;;;6.40
15607;BMP180;7865;50.918;4.510;2023-03-14T12:49:53;99728.00;;;6.70
15607;BMP180;7865;50.918;4.510;2023-03-14T12:55:25;99727.00;;;7.20
15607;BMP180;7865;50.918;4.510;2023-03-14T13:00:33;99727.00;;;7.60
15607;BMP180;7865;50.918;4.510;2023-03-14T13:05:35;99739.00;;;7.80
15607;BMP180;7865;50.918;4.510;2023-03-14T13:10:41;99753.00;;;7.20
15607;BMP180;7865;50.918;4.510;2023-03-14T13:15:46;99755.00;;;7.00
15607;BMP180;7865;50.918;4.510;2023-03-14T13:20:54;99804.00;;;6.50
15607;BMP180;7865;50.918;4.510;2023-03-14T13:25:58;99803.00;;;6.10
15607;BMP180;7865;50.918;4.510;2023-03-14T13:31:02;99807.00;;;6.20
15607;BMP180;7865;50.918;4.510;2023-03-14T13:36:05;99823.00;;;6.30
15607;BMP180;7865;50.918;4.510;2023-03-14T13:41:07;99832.00;;;6.30
15607;BMP180;7865;50.918;4.510;2023-03-14T13:46:16;99845.00;;;6.40
15607;BMP180;7865;50.918;4.510;2023-03-14T13:51:22;99853.00;;;6.80
15607;BMP180;7865;50.918;4.510;2023-03-14T13:56:29;99868.00;;;7.00
15607;BMP180;7865;50.918;4.510;2023-03-14T14:01:35;99881.00;;;7.00
15607;BMP180;7865;50.918;4.510;2023-03-14T14:06:44;99907.00;;;7.00
15607;BMP180;7865;50.918;4.510;2023-03-14T14:12:16;99898.00;;;7.40
15607;BMP180;7865;50.918;4.510;2023-03-14T14:17:23;99921.00;;;7.70
15607;BMP180;7865;50.918;4.510;2023-03-14T14:22:26;99931.00;;;7.90
15607;BMP180;7865;50.918;4.510;2023-03-14T14:27:35;99945.00;;;8.00
15607;BMP180;7865;50.918;4.510;2023-03-14T14:32:38;99963.00;;;7.70
15607;BMP180;7865;50.918;4.510;2023-03-14T14:37:42;99965.00;;;7.00
15607;BMP180;7865;50.918;4.510;2023-03-14T14:42:45;99989.00;;;6.60
15607;BMP180;7865;50.918;4.510;2023-03-14T14:47:57;100023.00;;;6.20
15607;BMP180;7865;50.918;4.510;2023-03-14T15:03:31;100109.00;;;5.30
15607;BMP180;7865;50.918;4.510;2023-03-14T15:08:33;100104.00;;;5.50
15607;BMP180;7865;50.918;4.510;2023-03-14T15:13:35;100092.00;;;5.80
15607;BMP180;7865;50.918;4.510;2023-03-14T15:18:38;100114.00;;;6.00
15607;BMP180;7865;50.918;4.510;2023-03-14T15:23:40;100113.00;;;6.00
15607;BMP180;7865;50.918;4.510;2023-03-14T15:28:42;100109.00;;;6.00
15607;BMP180;7865;50.918;4.510;2023-03-14T15:33:45;100113.00;;;6.10
15607;BMP180;7865;50.918;4.510;2023-03-14T15:38:47;100123.00;;;6.10
15607;BMP180;7865;50.918;4.510;2023-03-14T15:43:50;100127.00;;;6.20
15607;BMP180;7865;50.918;4.510;2023-03-14T15:48:53;100125.00;;;6.10
15607;BMP180;7865;50.918;4.510;2023-03-14T15:53:55;100144.00;;;5.90
15607;BMP180;7865;50.918;4.510;2023-03-14T15:58:56;100143.00;;;5.90
15607;BMP180;7865;50.918;4.510;2023-03-14T16:03:58;100155.00;;;5.90
15607;BMP180;7865;50.918;4.510;2023-03-14T16:09:01;100165.00;;;5.80
15607;BMP180;7865;50.918;4.510;2023-03-14T16:14:02;100167.00;;;5.80
15607;BMP180;7865;50.918;4.510;2023-03-14T16:19:06;100193.00;;;5.70
15607;BMP180;7865;50.918;4.510;2023-03-14T16:24:08;100203.00;;;5.60
15607;BMP180;7865;50.918;4.510;2023-03-14T16:29:10;100200.00;;;5.60
15607;BMP180;7865;50.918;4.510;2023-03-14T16:34:12;100219.00;;;5.60
15607;BMP180;7865;50.918;4.510;2023-03-14T16:39:14;100236.00;;;5.60
15607;BMP180;7865;50.918;4.510;2023-03-14T16:44:16;100233.00;;;5.70
15607;BMP180;7865;50.918;4.510;2023-03-14T16:49:18;100256.00;;;5.70
15607;BMP180;7865;50.918;4.510;2023-03-14T16:54:21;100267.00;;;5.60
15607;BMP180;7865;50.918;4.510;2023-03-14T16:59:23;100274.00;;;5.60
15607;BMP180;7865;50.918;4.510;2023-03-14T17:04:26;100288.00;;;5.60
15607;BMP180;7865;50.918;4.510;2023-03-14T17:09:28;100305.00;;;5.50
15607;BMP180;7865;50.918;4.510;2023-03-14T17:14:32;100311.00;;;5.30
15607;BMP180;7865;50.918;4.510;2023-03-14T17:19:35;100324.00;;;5.20
15607;BMP180;7865;50.918;4.510;2023-03-14T17:24:37;100339.00;;;5.10
15607;BMP180;7865;50.918;4.510;2023-03-14T17:29:40;100356.00;;;4.90
15607;BMP180;7865;50.918;4.510;2023-03-14T17:34:42;100364.00;;;4.70
15607;BMP180;7865;50.918;4.510;2023-03-14T17:39:44;100377.00;;;4.70
15607;BMP180;7865;50.918;4.510;2023-03-14T17:44:46;100384.00;;;4.60
15607;BMP180;7865;50.918;4.510;2023-03-14T17:49:48;100401.00;;;4.30
15607;BMP180;7865;50.918;4.510;2023-03-14T17:54:50;100418.00;;;3.90
15607;BMP180;7865;50.918;4.510;2023-03-14T17:59:52;100416.00;;;3.70
15607;BMP180;7865;50.918;4.510;2023-03-14T18:04:54;100430.00;;;3.60
15607;BMP180;7865;50.918;4.510;2023-03-14T18:09:56;100444.00;;;3.50
15607;BMP180;7865;50.918;4.510;2023-03-14T18:14:58;100451.00;;;3.40
15607;BMP180;7865;50.918;4.510;2023-03-14T18:20:00;100468.00;;;3.40
15607;BMP180;7865;50.918;4.510;2023-03-14T18:25:02;100477.00;;;3.30
15607;BMP180;7865;50.918;4.510;2023-03-14T18:30:05;100487.00;;;3.20
15607;BMP180;7865;50.918;4.510;2023-03-14T18:35:07;100503.00;;;3.00
15607;BMP180;7865;50.918;4.510;2023-03-14T18:40:10;100516.00;;;2.90
15607;BMP180;7865;50.918;4.510;2023-03-14T18:45:14;100522.00;;;2.90
15607;BMP180;7865;50.918;4.510;2023-03-14T18:50:16;100526.00;;;2.90
15607;BMP180;7865;50.918;4.510;2023-03-14T18:55:18;100545.00;;;3.20
15607;BMP180;7865;50.918;4.510;2023-03-14T19:00:21;100557.00;;;3.50
15607;BMP180;7865;50.918;4.510;2023-03-14T19:05:22;100586.00;;;3.80
15607;BMP180;7865;50.918;4.510;2023-03-14T19:10:24;100589.00;;;3.80
15607;BMP180;7865;50.918;4.510;2023-03-14T19:15:27;100594.00;;;3.50
15607;BMP180;7865;50.918;4.510;2023-03-14T19:20:29;100588.00;;;3.20
15607;BMP180;7865;50.918;4.510;2023-03-14T19:25:31;100577.00;;;3.00
15607;BMP180;7865;50.918;4.510;2023-03-14T19:30:33;100587.00;;;2.70
15607;BMP180;7865;50.918;4.510;2023-03-14T19:35:35;100595.00;;;2.50
15607;BMP180;7865;50.918;4.510;2023-03-14T19:40:39;100593.00;;;2.30
15607;BMP180;7865;50.918;4.510;2023-03-14T19:45:41;100602.00;;;2.10
15607;BMP180;7865;50.918;4.510;2023-03-14T19:50:43;100604.00;;;2.10
15607;BMP180;7865;50.918;4.510;2023-03-14T19:55:45;100616.00;;;2.10
15607;BMP180;7865;50.918;4.510;2023-03-14T20:00:48;100616.00;;;2.10
15607;BMP180;7865;50.918;4.510;2023-03-14T20:05:51;100618.00;;;2.10
15607;BMP180;7865;50.918;4.510;2023-03-14T20:10:54;100635.00;;;2.10
15607;BMP180;7865;50.918;4.510;2023-03-14T20:15:56;100624.00;;;2.10
15607;BMP180;7865;50.918;4.510;2023-03-14T20:20:58;100627.00;;;2.30
15607;BMP180;7865;50.918;4.510;2023-03-14T20:26:00;100634.00;;;2.40
15607;BMP180;7865;50.918;4.510;2023-03-14T20:31:06;100639.00;;;2.60
15607;BMP180;7865;50.918;4.510;2023-03-14T20:36:09;100635.00;;;2.80
15607;BMP180;7865;50.918;4.510;2023-03-14T20:41:11;100668.00;;;3.00
15607;BMP180;7865;50.918;4.510;2023-03-14T20:46:13;100658.00;;;3.10
15607;BMP180;7865;50.918;4.510;2023-03-14T20:51:18;100640.00;;;3.00
15607;BMP180;7865;50.918;4.510;2023-03-14T20:56:20;100658.00;;;3.00
15607;BMP180;7865;50.918;4.510;2023-03-14T21:01:22;100666.00;;;3.00
15607;BMP180;7865;50.918;4.510;2023-03-14T21:06:24;100655.00;;;2.90
15607;BMP180;7865;50.918;4.510;2023-03-14T21:11:26;100656.00;;;2.90
15607;BMP180;7865;50.918;4.510;2023-03-14T21:16:29;100651.00;;;2.90
15607;BMP180;7865;50.918;4.510;2023-03-14T21:21:32;100676.00;;;2.80
15607;BMP180;7865;50.918;4.510;2023-03-14T21:26:34;100677.00;;;2.70
15607;BMP180;7865;50.918;4.510;2023-03-14T21:31:37;100685.00;;;2.60
15607;BMP180;7865;50.918;4.510;2023-03-14T21:36:41;100683.00;;;2.60
15607;BMP180;7865;50.918;4.510;2023-03-14T21:41:43;100682.00;;;2.50
15607;BMP180;7865;50.918;4.510;2023-03-14T21:46:47;100684.00;;;2.60
15607;BMP180;7865;50.918;4.510;2023-03-14T21:51:49;100676.00;;;2.60
15607;BMP180;7865;50.918;4.510;2023-03-14T21:56:53;100679.00;;;2.50
15607;BMP180;7865;50.918;4.510;2023-03-14T22:02:00;100685.00;;;2.50
15607;BMP180;7865;50.918;4.510;2023-03-14T22:07:11;100714.00;;;2.60
15607;BMP180;7865;50.918;4.510;2023-03-14T22:12:14;100704.00;;;2.70
15607;BMP180;7865;50.918;4.510;2023-03-14T22:17:20;100697.00;;;2.80
15607;BMP180;7865;50.918;4.510;2023-03-14T22:22:22;100690.00;;;2.90
15607;BMP180;7865;50.918;4.510;2023-03-14T22:27:24;100702.00;;;2.90
15607;BMP180;7865;50.918;4.510;2023-03-14T22:32:26;100700.00;;;3.00
15607;BMP180;7865;50.918;4.510;2023-03-14T22:37:28;100700.00;;;3.20
15607;BMP180;7865;50.918;4.510;2023-03-14T22:42:30;100711.00;;;3.30
15607;BMP180;7865;50.918;4.510;2023-03-14T22:47:32;100715.00;;;3.40
15607;BMP180;7865;50.918;4.510;2023-03-14T22:52:34;100715.00;;;3.50
15607;BMP180;7865;50.918;4.510;2023-03-14T22:57:36;100723.00;;;3.50
15607;BMP180;7865;50.918;4.510;2023-03-14T23:02:39;100721.00;;;3.60
15607;BMP180;7865;50.918;4.510;2023-03-14T23:07:41;100719.00;;;3.60
15607;BMP180;7865;50.918;4.510;2023-03-14T23:12:43;100711.00;;;3.60
15607;BMP180;7865;50.918;4.510;2023-03-14T23:17:48;100706.00;;;3.50
15607;BMP180;7865;50.918;4.510;2023-03-14T23:22:50;100713.00;;;3.60
15607;BMP180;7865;50.918;4.510;2023-03-14T23:27:52;100707.00;;;3.60
15607;BMP180;7865;50.918;4.510;2023-03-14T23:32:55;100718.00;;;3.60
15607;BMP180;7865;50.918;4.510;2023-03-14T23:37:56;100735.00;;;3.60
15607;BMP180;7865;50.918;4.510;2023-03-14T23:42:58;100737.00;;;3.50
15607;BMP180;7865;50.918;4.510;2023-03-14T23:48:00;100740.00;;;3.40
15607;BMP180;7865;50.918;4.510;2023-03-14T23:53:02;100768.00;;;2.90
15607;BMP180;7865;50.918;4.510;2023-03-14T23:58:04;100743.00;;;2.60
